sensor_id;sensor_type;location;lat;lon;timestamp;pressure;altitude;pressure_sealevel;temperature
5571;BMP180;2808;51.240;6.794;2023-10-08T00:01:10;101816.00;;;18.40
5571;BMP180;2808;51.240;6.794;2023-10-08T00:03:42;101818.00;;;18.40
5571;BMP180;2808;51.240;6.794;2023-10-08T00:06:14;101819.00;;;18.40
5571;BMP180;2808;51.240;6.794;2023-10-08T00:08:46;101814.00;;;18.40
5571;BMP180;2808;51.240;6.794;2023-10-08T00:11:17;101821.00;;;18.40
5571;BMP180;2808;51.240;6.794;2023-10-08T00:14:03;101824.00;;;18.40
5571;BMP180;2808;51.240;6.794;2023-10-08T00:16:37;101824.00;;;18.30
5571;BMP180;2808;51.240;6.794;2023-10-08T00:19:06;101829.00;;;18.30
5571;BMP180;2808;51.240;6.794;2023-10-08T00:21:40;101850.00;;;18.30
5571;BMP180;2808;51.240;6.794;2023-10-08T00:24:13;101844.00;;;18.30
5571;BMP180;2808;51.240;6.794;2023-10-08T00:26:41;101854.00;;;18.30
5571;BMP180;2808;51.240;6.794;2023-10-08T00:29:09;101858.00;;;18.30
5571;BMP180;2808;51.240;6.794;2023-10-08T00:35:05;101828.00;;;18.30
5571;BMP180;2808;51.240;6.794;2023-10-08T00:37:40;101822.00;;;18.30
5571;BMP180;2808;51.240;6.794;2023-10-08T00:40:08;101821.00;;;18.20
5571;BMP180;2808;51.240;6.794;2023-10-08T00:42:40;101835.00;;;18.20
5571;BMP180;2808;51.240;6.794;2023-10-08T00:45:12;101829.00;;;18.20
5571;BMP180;2808;51.240;6.794;2023-10-08T00:47:41;101836.00;;;18.20
5571;BMP180;2808;51.240;6.794;2023-10-08T00:50:13;101846.00;;;18.20
5571;BMP180;2808;51.240;6.794;2023-10-08T00:52:49;101848.00;;;18.20
5571;BMP180;2808;51.240;6.794;2023-10-08T00:55:26;101841.00;;;18.20
5571;BMP180;2808;51.240;6.794;2023-10-08T00:57:57;101848.00;;;18.20
5571;BMP180;2808;51.240;6.794;2023-10-08T01:00:38;101838.00;;;18.20
5571;BMP180;2808;51.240;6.794;2023-10-08T01:03:07;101837.00;;;18.10
5571;BMP180;2808;51.240;6.794;2023-10-08T01:05:42;101834.00;;;18.10
5571;BMP180;2808;51.240;6.794;2023-10-08T01:08:14;101831.00;;;18.10
5571;BMP180;2808;51.240;6.794;2023-10-08T01:10:48;101823.00;;;18.10
5571;BMP180;2808;51.240;6.794;2023-10-08T01:13:24;101820.00;;;18.10
5571;BMP180;2808;51.240;6.794;2023-10-08T01:15:53;101827.00;;;18.00
5571;BMP180;2808;51.240;6.794;2023-10-08T01:18:21;101830.00;;;18.00
5571;BMP180;2808;51.240;6.794;2023-10-08T01:21:00;101827.00;;;18.00
5571;BMP180;2808;51.240;6.794;2023-10-08T01:23:35;101834.00;;;17.90
5571;BMP180;2808;51.240;6.794;2023-10-08T01:26:04;101850.00;;;17.90
5571;BMP180;2808;51.240;6.794;2023-10-08T01:28:37;101869.00;;;17.80
5571;BMP180;2808;51.240;6.794;2023-10-08T01:31:04;101853.00;;;17.80
5571;BMP180;2808;51.240;6.794;2023-10-08T01:33:33;101859.00;;;17.80
5571;BMP180;2808;51.240;6.794;2023-10-08T01:36:05;101845.00;;;17.70
5571;BMP180;2808;51.240;6.794;2023-10-08T01:38:40;101847.00;;;17.70
5571;BMP180;2808;51.240;6.794;2023-10-08T01:41:08;101849.00;;;17.60
5571;BMP180;2808;51.240;6.794;2023-10-08T01:43:44;101849.00;;;17.60
5571;BMP180;2808;51.240;6.794;2023-10-08T01:46:12;101853.00;;;17.60
5571;BMP180;2808;51.240;6.794;2023-10-08T01:48:44;101841.00;;;17.50
5571;BMP180;2808;51.240;6.794;2023-10-08T01:51:12;101847.00;;;17.50
5571;BMP180;2808;51.240;6.794;2023-10-08T01:53:53;101837.00;;;17.40
5571;BMP180;2808;51.240;6.794;2023-10-08T01:56:21;101841.00;;;17.40
5571;BMP180;2808;51.240;6.794;2023-10-08T01:58:50;101832.00;;;17.40
5571;BMP180;2808;51.240;6.794;2023-10-08T02:01:20;101836.00;;;17.40
5571;BMP180;2808;51.240;6.794;2023-10-08T02:03:47;101837.00;;;17.30
5571;BMP180;2808;51.240;6.794;2023-10-08T02:06:15;101838.00;;;17.30
5571;BMP180;2808;51.240;6.794;2023-10-08T02:08:43;101846.00;;;17.30
5571;BMP180;2808;51.240;6.794;2023-10-08T02:11:12;101844.00;;;17.30
5571;BMP180;2808;51.240;6.794;2023-10-08T02:13:41;101845.00;;;17.30
5571;BMP180;2808;51.240;6.794;2023-10-08T02:16:09;101847.00;;;17.30
5571;BMP180;2808;51.240;6.794;2023-10-08T02:18:37;101848.00;;;17.30
5571;BMP180;2808;51.240;6.794;2023-10-08T02:21:05;101844.00;;;17.30
5571;BMP180;2808;51.240;6.794;2023-10-08T02:23:33;101836.00;;;17.40
5571;BMP180;2808;51.240;6.794;2023-10-08T02:26:00;101840.00;;;17.30
5571;BMP180;2808;51.240;6.794;2023-10-08T02:28:32;101840.00;;;17.30
5571;BMP180;2808;51.240;6.794;2023-10-08T02:31:00;101843.00;;;17.30
5571;BMP180;2808;51.240;6.794;2023-10-08T02:33:27;101840.00;;;17.30
5571;BMP180;2808;51.240;6.794;2023-10-08T02:35:56;101828.00;;;17.30
5571;BMP180;2808;51.240;6.794;2023-10-08T02:38:24;101816.00;;;17.30
5571;BMP180;2808;51.240;6.794;2023-10-08T02:40:54;101823.00;;;17.30
5571;BMP180;2808;51.240;6.794;2023-10-08T02:43:23;101813.00;;;17.30
5571;BMP180;2808;51.240;6.794;2023-10-08T02:45:57;101823.00;;;17.20
5571;BMP180;2808;51.240;6.794;2023-10-08T02:48:26;101839.00;;;17.20
5571;BMP180;2808;51.240;6.794;2023-10-08T02:50:53;101830.00;;;17.20
5571;BMP180;2808;51.240;6.794;2023-10-08T02:53:27;101837.00;;;17.20
5571;BMP180;2808;51.240;6.794;2023-10-08T02:55:55;101847.00;;;17.20
5571;BMP180;2808;51.240;6.794;2023-10-08T02:58:23;101847.00;;;17.20
5571;BMP180;2808;51.240;6.794;2023-10-08T03:00:54;101848.00;;;17.20
5571;BMP180;2808;51.240;6.794;2023-10-08T03:03:22;101855.00;;;17.20
5571;BMP180;2808;51.240;6.794;2023-10-08T03:05:52;101861.00;;;17.20
5571;BMP180;2808;51.240;6.794;2023-10-08T03:08:22;101855.00;;;17.20
5571;BMP180;2808;51.240;6.794;2023-10-08T03:10:52;101858.00;;;17.10
5571;BMP180;2808;51.240;6.794;2023-10-08T03:13:21;101865.00;;;17.10
5571;BMP180;2808;51.240;6.794;2023-10-08T03:15:49;101880.00;;;17.10
5571;BMP180;2808;51.240;6.794;2023-10-08T03:18:37;101875.00;;;17.10
5571;BMP180;2808;51.240;6.794;2023-10-08T03:21:09;101870.00;;;17.10
5571;BMP180;2808;51.240;6.794;2023-10-08T03:24:10;101858.00;;;17.10
5571;BMP180;2808;51.240;6.794;2023-10-08T03:27:01;101840.00;;;17.00
5571;BMP180;2808;51.240;6.794;2023-10-08T03:29:41;101831.00;;;17.00
5571;BMP180;2808;51.240;6.794;2023-10-08T03:32:10;101853.00;;;17.00
5571;BMP180;2808;51.240;6.794;2023-10-08T03:34:46;101870.00;;;17.00
5571;BMP180;2808;51.240;6.794;2023-10-08T03:37:14;101886.00;;;17.00
5571;BMP180;2808;51.240;6.794;2023-10-08T03:39:48;101888.00;;;16.90
5571;BMP180;2808;51.240;6.794;2023-10-08T03:42:22;101884.00;;;16.90
5571;BMP180;2808;51.240;6.794;2023-10-08T03:44:52;101883.00;;;16.90
5571;BMP180;2808;51.240;6.794;2023-10-08T03:47:22;101873.00;;;17.00
5571;BMP180;2808;51.240;6.794;2023-10-08T03:49:54;101873.00;;;16.90
5571;BMP180;2808;51.240;6.794;2023-10-08T03:52:21;101859.00;;;16.90
5571;BMP180;2808;51.240;6.794;2023-10-08T03:54:51;101856.00;;;16.90
5571;BMP180;2808;51.240;6.794;2023-10-08T03:57:34;101859.00;;;16.90
5571;BMP180;2808;51.240;6.794;2023-10-08T04:00:23;101887.00;;;16.90
5571;BMP180;2808;51.240;6.794;2023-10-08T04:02:57;101859.00;;;16.90
5571;BMP180;2808;51.240;6.794;2023-10-08T04:05:35;101861.00;;;16.90
5571;BMP180;2808;51.240;6.794;2023-10-08T04:08:16;101829.00;;;16.90
5571;BMP180;2808;51.240;6.794;2023-10-08T04:10:51;101841.00;;;16.80
5571;BMP180;2808;51.240;6.794;2023-10-08T04:13:32;101852.00;;;16.80
5571;BMP180;2808;51.240;6.794;2023-10-08T04:16:00;101869.00;;;16.80
5571;BMP180;2808;51.240;6.794;2023-10-08T04:18:30;101869.00;;;16.80
5571;BMP180;2808;51.240;6.794;2023-10-08T04:21:03;101862.00;;;16.80
5571;BMP180;2808;51.240;6.794;2023-10-08T04:23:39;101858.00;;;16.80
5571;BMP180;2808;51.240;6.794;2023-10-08T04:26:06;101859.00;;;16.80
5571;BMP180;2808;51.240;6.794;2023-10-08T04:28:34;101888.00;;;16.80
5571;BMP180;2808;51.240;6.794;2023-10-08T04:31:02;101893.00;;;16.80
5571;BMP180;2808;51.240;6.794;2023-10-08T04:33:43;101902.00;;;16.80
5571;BMP180;2808;51.240;6.794;2023-10-08T04:36:12;101899.00;;;16.70
5571;BMP180;2808;51.240;6.794;2023-10-08T04:38:44;101897.00;;;16.70
5571;BMP180;2808;51.240;6.794;2023-10-08T04:41:13;101893.00;;;16.70
5571;BMP180;2808;51.240;6.794;2023-10-08T04:43:45;101889.00;;;16.70
5571;BMP180;2808;51.240;6.794;2023-10-08T04:46:15;101884.00;;;16.70
5571;BMP180;2808;51.240;6.794;2023-10-08T04:49:06;101885.00;;;16.60
5571;BMP180;2808;51.240;6.794;2023-10-08T04:51:45;101900.00;;;16.60
5571;BMP180;2808;51.240;6.794;2023-10-08T04:54:15;101903.00;;;16.60
5571;BMP180;2808;51.240;6.794;2023-10-08T04:56:43;101898.00;;;16.70
5571;BMP180;2808;51.240;6.794;2023-10-08T04:59:11;101877.00;;;16.60
5571;BMP180;2808;51.240;6.794;2023-10-08T05:01:38;101871.00;;;16.60
5571;BMP180;2808;51.240;6.794;2023-10-08T05:04:15;101880.00;;;16.50
5571;BMP180;2808;51.240;6.794;2023-10-08T05:06:54;101886.00;;;16.60
5571;BMP180;2808;51.240;6.794;2023-10-08T05:09:39;101892.00;;;16.60
5571;BMP180;2808;51.240;6.794;2023-10-08T05:12:19;101901.00;;;16.60
5571;BMP180;2808;51.240;6.794;2023-10-08T05:15:04;101909.00;;;16.60
5571;BMP180;2808;51.240;6.794;2023-10-08T05:17:51;101916.00;;;16.60
5571;BMP180;2808;51.240;6.794;2023-10-08T05:20:35;101912.00;;;16.60
5571;BMP180;2808;51.240;6.794;2023-10-08T05:23:26;101928.00;;;16.60
5571;BMP180;2808;51.240;6.794;2023-10-08T05:26:19;101935.00;;;16.60
5571;BMP180;2808;51.240;6.794;2023-10-08T05:28:57;101938.00;;;16.60
5571;BMP180;2808;51.240;6.794;2023-10-08T05:31:56;101941.00;;;16.60
5571;BMP180;2808;51.240;6.794;2023-10-08T05:34:37;101949.00;;;16.60
5571;BMP180;2808;51.240;6.794;2023-10-08T05:37:22;101955.00;;;16.60
5571;BMP180;2808;51.240;6.794;2023-10-08T05:40:06;101957.00;;;16.60
5571;BMP180;2808;51.240;6.794;2023-10-08T05:42:47;101970.00;;;16.60
5571;BMP180;2808;51.240;6.794;2023-10-08T05:45:16;101972.00;;;16.60
5571;BMP180;2808;51.240;6.794;2023-10-08T05:47:56;101962.00;;;16.60
5571;BMP180;2808;51.240;6.794;2023-10-08T05:50:40;101962.00;;;16.70
5571;BMP180;2808;51.240;6.794;2023-10-08T05:53:21;101952.00;;;16.60
5571;BMP180;2808;51.240;6.794;2023-10-08T05:56:10;101928.00;;;16.60
5571;BMP180;2808;51.240;6.794;2023-10-08T05:58:54;101930.00;;;16.50
5571;BMP180;2808;51.240;6.794;2023-10-08T06:01:36;101923.00;;;16.50
5571;BMP180;2808;51.240;6.794;2023-10-08T06:04:07;101928.00;;;16.50
5571;BMP180;2808;51.240;6.794;2023-10-08T06:07:08;101917.00;;;16.50
5571;BMP180;2808;51.240;6.794;2023-10-08T06:09:43;101918.00;;;16.50
5571;BMP180;2808;51.240;6.794;2023-10-08T06:12:29;101924.00;;;16.50
5571;BMP180;2808;51.240;6.794;2023-10-08T06:15:14;101925.00;;;16.50
5571;BMP180;2808;51.240;6.794;2023-10-08T06:17:50;101932.00;;;16.50
5571;BMP180;2808;51.240;6.794;2023-10-08T06:20:30;101937.00;;;16.50
5571;BMP180;2808;51.240;6.794;2023-10-08T06:22:59;101941.00;;;16.50
5571;BMP180;2808;51.240;6.794;2023-10-08T06:25:33;101944.00;;;16.60
5571;BMP180;2808;51.240;6.794;2023-10-08T06:28:17;101928.00;;;16.50
5571;BMP180;2808;51.240;6.794;2023-10-08T06:30:46;101935.00;;;16.60
5571;BMP180;2808;51.240;6.794;2023-10-08T06:33:14;101962.00;;;16.60
5571;BMP180;2808;51.240;6.794;2023-10-08T06:35:42;101973.00;;;16.70
5571;BMP180;2808;51.240;6.794;2023-10-08T06:38:34;101965.00;;;16.70
5571;BMP180;2808;51.240;6.794;2023-10-08T06:41:09;101972.00;;;16.80
5571;BMP180;2808;51.240;6.794;2023-10-08T06:43:43;101972.00;;;16.80
5571;BMP180;2808;51.240;6.794;2023-10-08T06:46:11;101962.00;;;16.80
5571;BMP180;2808;51.240;6.794;2023-10-08T06:48:39;101960.00;;;16.80
5571;BMP180;2808;51.240;6.794;2023-10-08T06:51:13;101953.00;;;16.80
5571;BMP180;2808;51.240;6.794;2023-10-08T06:53:47;101955.00;;;16.80
5571;BMP180;2808;51.240;6.794;2023-10-08T06:56:15;101952.00;;;16.80
5571;BMP180;2808;51.240;6.794;2023-10-08T06:58:47;101945.00;;;16.80
5571;BMP180;2808;51.240;6.794;2023-10-08T07:01:19;101958.00;;;16.80
5571;BMP180;2808;51.240;6.794;2023-10-08T07:03:48;101960.00;;;16.80
5571;BMP180;2808;51.240;6.794;2023-10-08T07:06:17;101962.00;;;16.80
5571;BMP180;2808;51.240;6.794;2023-10-08T07:08:54;101955.00;;;16.80
5571;BMP180;2808;51.240;6.794;2023-10-08T07:11:22;101961.00;;;16.90
5571;BMP180;2808;51.240;6.794;2023-10-08T07:13:51;101981.00;;;16.90
5571;BMP180;2808;51.240;6.794;2023-10-08T07:16:19;101972.00;;;16.90
5571;BMP180;2808;51.240;6.794;2023-10-08T07:18:47;102006.00;;;16.90
5571;BMP180;2808;51.240;6.794;2023-10-08T07:21:18;101978.00;;;17.00
5571;BMP180;2808;51.240;6.794;2023-10-08T07:23:54;101994.00;;;17.00
5571;BMP180;2808;51.240;6.794;2023-10-08T07:26:26;102001.00;;;17.10
5571;BMP180;2808;51.240;6.794;2023-10-08T07:29:03;102011.00;;;17.10
5571;BMP180;2808;51.240;6.794;2023-10-08T07:31:35;102014.00;;;17.10
5571;BMP180;2808;51.240;6.794;2023-10-08T07:34:03;102024.00;;;17.10
5571;BMP180;2808;51.240;6.794;2023-10-08T07:36:46;102027.00;;;17.10
5571;BMP180;2808;51.240;6.794;2023-10-08T07:39:15;102028.00;;;17.10
5571;BMP180;2808;51.240;6.794;2023-10-08T07:41:52;102026.00;;;17.20
5571;BMP180;2808;51.240;6.794;2023-10-08T07:44:23;102019.00;;;17.30
5571;BMP180;2808;51.240;6.794;2023-10-08T07:46:54;102023.00;;;17.20
5571;BMP180;2808;51.240;6.794;2023-10-08T07:49:21;102022.00;;;17.30
5571;BMP180;2808;51.240;6.794;2023-10-08T07:51:50;102021.00;;;17.30
5571;BMP180;2808;51.240;6.794;2023-10-08T07:54:21;102015.00;;;17.30
5571;BMP180;2808;51.240;6.794;2023-10-08T07:56:50;102018.00;;;17.20
5571;BMP180;2808;51.240;6.794;2023-10-08T07:59:18;102018.00;;;17.30
5571;BMP180;2808;51.240;6.794;2023-10-08T08:01:49;102025.00;;;17.30
5571;BMP180;2808;51.240;6.794;2023-10-08T08:04:21;102022.00;;;17.40
5571;BMP180;2808;51.240;6.794;2023-10-08T08:06:50;102038.00;;;17.40
5571;BMP180;2808;51.240;6.794;2023-10-08T08:09:19;102032.00;;;17.50
5571;BMP180;2808;51.240;6.794;2023-10-08T08:11:49;102034.00;;;17.60
5571;BMP180;2808;51.240;6.794;2023-10-08T08:14:18;102028.00;;;17.60
5571;BMP180;2808;51.240;6.794;2023-10-08T08:16:52;102032.00;;;17.70
5571;BMP180;2808;51.240;6.794;2023-10-08T08:19:19;102032.00;;;17.90
5571;BMP180;2808;51.240;6.794;2023-10-08T08:21:50;102033.00;;;18.00
5571;BMP180;2808;51.240;6.794;2023-10-08T08:24:18;102040.00;;;18.00
5571;BMP180;2808;51.240;6.794;2023-10-08T08:26:55;102051.00;;;18.10
5571;BMP180;2808;51.240;6.794;2023-10-08T08:29:35;102043.00;;;18.20
5571;BMP180;2808;51.240;6.794;2023-10-08T08:32:12;102038.00;;;18.20
5571;BMP180;2808;51.240;6.794;2023-10-08T08:34:41;102047.00;;;18.30
5571;BMP180;2808;51.240;6.794;2023-10-08T08:37:11;102052.00;;;18.50
5571;BMP180;2808;51.240;6.794;2023-10-08T08:39:38;102065.00;;;18.60
5571;BMP180;2808;51.240;6.794;2023-10-08T08:42:08;102055.00;;;18.70
5571;BMP180;2808;51.240;6.794;2023-10-08T08:44:37;102055.00;;;18.70
5571;BMP180;2808;51.240;6.794;2023-10-08T08:47:12;102060.00;;;18.70
5571;BMP180;2808;51.240;6.794;2023-10-08T08:49:44;102055.00;;;18.80
5571;BMP180;2808;51.240;6.794;2023-10-08T08:52:12;102043.00;;;18.80
5571;BMP180;2808;51.240;6.794;2023-10-08T08:54:39;102053.00;;;18.80
5571;BMP180;2808;51.240;6.794;2023-10-08T08:57:11;102051.00;;;18.80
5571;BMP180;2808;51.240;6.794;2023-10-08T08:59:44;102050.00;;;18.60
5571;BMP180;2808;51.240;6.794;2023-10-08T09:02:15;102062.00;;;18.60
5571;BMP180;2808;51.240;6.794;2023-10-08T09:05:00;102055.00;;;18.60
5571;BMP180;2808;51.240;6.794;2023-10-08T09:08:00;102048.00;;;18.60
5571;BMP180;2808;51.240;6.794;2023-10-08T09:10:33;102045.00;;;18.60
5571;BMP180;2808;51.240;6.794;2023-10-08T09:13:04;102050.00;;;18.70
5571;BMP180;2808;51.240;6.794;2023-10-08T09:15:35;102058.00;;;18.70
5571;BMP180;2808;51.240;6.794;2023-10-08T09:18:08;102075.00;;;18.70
5571;BMP180;2808;51.240;6.794;2023-10-08T09:20:37;102071.00;;;18.70
5571;BMP180;2808;51.240;6.794;2023-10-08T09:23:09;102072.00;;;18.80
5571;BMP180;2808;51.240;6.794;2023-10-08T09:25:38;102086.00;;;18.80
5571;BMP180;2808;51.240;6.794;2023-10-08T09:28:06;102083.00;;;18.90
5571;BMP180;2808;51.240;6.794;2023-10-08T09:30:35;102096.00;;;19.00
5571;BMP180;2808;51.240;6.794;2023-10-08T09:33:12;102092.00;;;19.00
5571;BMP180;2808;51.240;6.794;2023-10-08T09:35:40;102094.00;;;19.00
5571;BMP180;2808;51.240;6.794;2023-10-08T09:38:09;102098.00;;;19.00
5571;BMP180;2808;51.240;6.794;2023-10-08T09:40:38;102100.00;;;19.20
5571;BMP180;2808;51.240;6.794;2023-10-08T09:43:07;102098.00;;;19.20
5571;BMP180;2808;51.240;6.794;2023-10-08T09:45:37;102095.00;;;19.30
5571;BMP180;2808;51.240;6.794;2023-10-08T09:48:15;102092.00;;;19.20
5571;BMP180;2808;51.240;6.794;2023-10-08T09:50:44;102108.00;;;19.30
5571;BMP180;2808;51.240;6.794;2023-10-08T09:53:13;102106.00;;;19.20
5571;BMP180;2808;51.240;6.794;2023-10-08T09:55:46;102109.00;;;18.90
5571;BMP180;2808;51.240;6.794;2023-10-08T09:58:15;102100.00;;;18.70
5571;BMP180;2808;51.240;6.794;2023-10-08T10:00:44;102111.00;;;18.60
5571;BMP180;2808;51.240;6.794;2023-10-08T10:06:31;102092.00;;;18.40
5571;BMP180;2808;51.240;6.794;2023-10-08T10:09:26;102095.00;;;18.60
5571;BMP180;2808;51.240;6.794;2023-10-08T10:12:17;102095.00;;;18.60
5571;BMP180;2808;51.240;6.794;2023-10-08T10:17:47;102092.00;;;18.80
5571;BMP180;2808;51.240;6.794;2023-10-08T10:20:21;102089.00;;;18.80
5571;BMP180;2808;51.240;6.794;2023-10-08T10:22:48;102085.00;;;18.70
5571;BMP180;2808;51.240;6.794;2023-10-08T10:25:35;102092.00;;;18.80
5571;BMP180;2808;51.240;6.794;2023-10-08T10:28:25;102097.00;;;19.00
5571;BMP180;2808;51.240;6.794;2023-10-08T10:31:06;102097.00;;;19.10
5571;BMP180;2808;51.240;6.794;2023-10-08T10:33:58;102094.00;;;19.30
5571;BMP180;2808;51.240;6.794;2023-10-08T10:37:05;102092.00;;;19.50
5571;BMP180;2808;51.240;6.794;2023-10-08T10:39:59;102098.00;;;19.40
5571;BMP180;2808;51.240;6.794;2023-10-08T10:42:36;102098.00;;;19.40
5571;BMP180;2808;51.240;6.794;2023-10-08T10:45:15;102098.00;;;19.50
5571;BMP180;2808;51.240;6.794;2023-10-08T10:48:04;102089.00;;;19.60
5571;BMP180;2808;51.240;6.794;2023-10-08T10:50:51;102093.00;;;19.70
5571;BMP180;2808;51.240;6.794;2023-10-08T10:54:00;102093.00;;;19.60
5571;BMP180;2808;51.240;6.794;2023-10-08T10:56:43;102093.00;;;19.40
5571;BMP180;2808;51.240;6.794;2023-10-08T10:59:11;102106.00;;;19.30
5571;BMP180;2808;51.240;6.794;2023-10-08T11:01:53;102110.00;;;19.20
5571;BMP180;2808;51.240;6.794;2023-10-08T11:04:36;102102.00;;;19.20
5571;BMP180;2808;51.240;6.794;2023-10-08T11:07:27;102105.00;;;19.20
5571;BMP180;2808;51.240;6.794;2023-10-08T11:10:23;102114.00;;;19.20
5571;BMP180;2808;51.240;6.794;2023-10-08T11:13:04;102114.00;;;19.10
5571;BMP180;2808;51.240;6.794;2023-10-08T11:15:40;102100.00;;;19.30
5571;BMP180;2808;51.240;6.794;2023-10-08T11:18:14;102103.00;;;19.40
5571;BMP180;2808;51.240;6.794;2023-10-08T11:20:46;102102.00;;;19.50
5571;BMP180;2808;51.240;6.794;2023-10-08T11:23:31;102090.00;;;19.60
5571;BMP180;2808;51.240;6.794;2023-10-08T11:26:03;102091.00;;;19.50
5571;BMP180;2808;51.240;6.794;2023-10-08T11:28:34;102089.00;;;19.40
5571;BMP180;2808;51.240;6.794;2023-10-08T11:31:03;102093.00;;;19.60
5571;BMP180;2808;51.240;6.794;2023-10-08T11:33:36;102092.00;;;19.70
5571;BMP180;2808;51.240;6.794;2023-10-08T11:36:05;102094.00;;;19.70
5571;BMP180;2808;51.240;6.794;2023-10-08T11:38:39;102089.00;;;19.80
5571;BMP180;2808;51.240;6.794;2023-10-08T11:41:12;102087.00;;;20.00
5571;BMP180;2808;51.240;6.794;2023-10-08T11:43:52;102080.00;;;20.20
5571;BMP180;2808;51.240;6.794;2023-10-08T11:46:24;102083.00;;;20.00
5571;BMP180;2808;51.240;6.794;2023-10-08T11:48:59;102081.00;;;19.80
5571;BMP180;2808;51.240;6.794;2023-10-08T11:51:31;102076.00;;;19.70
5571;BMP180;2808;51.240;6.794;2023-10-08T11:54:00;102090.00;;;19.70
5571;BMP180;2808;51.240;6.794;2023-10-08T11:56:41;102077.00;;;19.60
5571;BMP180;2808;51.240;6.794;2023-10-08T11:59:14;102082.00;;;19.60
5571;BMP180;2808;51.240;6.794;2023-10-08T12:01:44;102076.00;;;19.50
5571;BMP180;2808;51.240;6.794;2023-10-08T12:04:17;102072.00;;;19.60
5571;BMP180;2808;51.240;6.794;2023-10-08T12:06:51;102074.00;;;19.60
5571;BMP180;2808;51.240;6.794;2023-10-08T12:09:21;102059.00;;;19.50
5571;BMP180;2808;51.240;6.794;2023-10-08T12:11:58;102063.00;;;19.40
5571;BMP180;2808;51.240;6.794;2023-10-08T12:14:26;102066.00;;;19.50
5571;BMP180;2808;51.240;6.794;2023-10-08T12:16:56;102068.00;;;19.50
5571;BMP180;2808;51.240;6.794;2023-10-08T12:19:26;102062.00;;;19.50
5571;BMP180;2808;51.240;6.794;2023-10-08T12:21:59;102065.00;;;19.70
5571;BMP180;2808;51.240;6.794;2023-10-08T12:24:28;102061.00;;;19.80
5571;BMP180;2808;51.240;6.794;2023-10-08T12:27:01;102067.00;;;19.90
5571;BMP180;2808;51.240;6.794;2023-10-08T12:29:29;102070.00;;;20.00
5571;BMP180;2808;51.240;6.794;2023-10-08T12:31:59;102057.00;;;20.00
5571;BMP180;2808;51.240;6.794;2023-10-08T12:34:28;102057.00;;;20.00
5571;BMP180;2808;51.240;6.794;2023-10-08T12:36:58;102052.00;;;20.00
5571;BMP180;2808;51.240;6.794;2023-10-08T12:39:26;102050.00;;;19.80
5571;BMP180;2808;51.240;6.794;2023-10-08T12:41:54;102048.00;;;19.80
5571;BMP180;2808;51.240;6.794;2023-10-08T12:44:25;102028.00;;;19.80
5571;BMP180;2808;51.240;6.794;2023-10-08T12:46:53;102061.00;;;19.80
5571;BMP180;2808;51.240;6.794;2023-10-08T12:49:22;102019.00;;;19.80
5571;BMP180;2808;51.240;6.794;2023-10-08T12:51:51;102011.00;;;19.90
5571;BMP180;2808;51.240;6.794;2023-10-08T12:54:19;102035.00;;;19.80
5571;BMP180;2808;51.240;6.794;2023-10-08T12:56:50;102011.00;;;19.80
5571;BMP180;2808;51.240;6.794;2023-10-08T12:59:21;102013.00;;;19.80
5571;BMP180;2808;51.240;6.794;2023-10-08T13:01:51;102028.00;;;19.80
5571;BMP180;2808;51.240;6.794;2023-10-08T13:04:20;102022.00;;;19.80
5571;BMP180;2808;51.240;6.794;2023-10-08T13:06:52;102019.00;;;19.80
5571;BMP180;2808;51.240;6.794;2023-10-08T13:09:23;102019.00;;;19.70
5571;BMP180;2808;51.240;6.794;2023-10-08T13:11:50;102010.00;;;19.80
5571;BMP180;2808;51.240;6.794;2023-10-08T13:14:18;102011.00;;;19.90
5571;BMP180;2808;51.240;6.794;2023-10-08T13:16:50;102011.00;;;20.00
5571;BMP180;2808;51.240;6.794;2023-10-08T13:19:20;101999.00;;;20.00
5571;BMP180;2808;51.240;6.794;2023-10-08T13:21:49;102001.00;;;20.00
5571;BMP180;2808;51.240;6.794;2023-10-08T13:24:20;101998.00;;;19.90
5571;BMP180;2808;51.240;6.794;2023-10-08T13:26:47;102014.00;;;20.00
5571;BMP180;2808;51.240;6.794;2023-10-08T13:29:15;101999.00;;;20.10
5571;BMP180;2808;51.240;6.794;2023-10-08T13:31:49;101994.00;;;20.10
5571;BMP180;2808;51.240;6.794;2023-10-08T13:34:20;102003.00;;;20.10
5571;BMP180;2808;51.240;6.794;2023-10-08T13:36:51;101995.00;;;20.20
5571;BMP180;2808;51.240;6.794;2023-10-08T13:39:22;101988.00;;;20.30
5571;BMP180;2808;51.240;6.794;2023-10-08T13:41:50;101986.00;;;20.30
5571;BMP180;2808;51.240;6.794;2023-10-08T13:44:21;101989.00;;;20.30
5571;BMP180;2808;51.240;6.794;2023-10-08T13:47:07;101977.00;;;20.20
5571;BMP180;2808;51.240;6.794;2023-10-08T13:49:51;101969.00;;;20.20
5571;BMP180;2808;51.240;6.794;2023-10-08T13:52:21;101962.00;;;20.10
5571;BMP180;2808;51.240;6.794;2023-10-08T13:54:54;101960.00;;;20.10
5571;BMP180;2808;51.240;6.794;2023-10-08T13:57:26;101962.00;;;20.10
5571;BMP180;2808;51.240;6.794;2023-10-08T13:59:55;101958.00;;;20.10
5571;BMP180;2808;51.240;6.794;2023-10-08T14:02:32;101956.00;;;20.00
5571;BMP180;2808;51.240;6.794;2023-10-08T14:05:03;101949.00;;;20.00
5571;BMP180;2808;51.240;6.794;2023-10-08T14:07:35;101938.00;;;20.10
5571;BMP180;2808;51.240;6.794;2023-10-08T14:10:13;101937.00;;;20.10
5571;BMP180;2808;51.240;6.794;2023-10-08T14:12:47;101942.00;;;20.20
5571;BMP180;2808;51.240;6.794;2023-10-08T14:15:21;101937.00;;;20.20
5571;BMP180;2808;51.240;6.794;2023-10-08T14:17:49;101937.00;;;20.20
5571;BMP180;2808;51.240;6.794;2023-10-08T14:20:22;101933.00;;;20.20
5571;BMP180;2808;51.240;6.794;2023-10-08T14:22:57;101931.00;;;20.20
5571;BMP180;2808;51.240;6.794;2023-10-08T14:25:33;101940.00;;;20.20
5571;BMP180;2808;51.240;6.794;2023-10-08T14:28:26;101938.00;;;20.10
5571;BMP180;2808;51.240;6.794;2023-10-08T14:31:22;101930.00;;;20.10
5571;BMP180;2808;51.240;6.794;2023-10-08T14:33:54;101936.00;;;20.10
5571;BMP180;2808;51.240;6.794;2023-10-08T14:37:07;101927.00;;;20.10
5571;BMP180;2808;51.240;6.794;2023-10-08T14:39:52;101926.00;;;20.20
5571;BMP180;2808;51.240;6.794;2023-10-08T14:42:55;101943.00;;;20.40
5571;BMP180;2808;51.240;6.794;2023-10-08T14:45:26;101936.00;;;20.40
5571;BMP180;2808;51.240;6.794;2023-10-08T14:48:02;101942.00;;;20.40
5571;BMP180;2808;51.240;6.794;2023-10-08T14:50:31;101945.00;;;20.40
5571;BMP180;2808;51.240;6.794;2023-10-08T14:53:03;101933.00;;;20.30
5571;BMP180;2808;51.240;6.794;2023-10-08T14:55:35;101941.00;;;20.30
5571;BMP180;2808;51.240;6.794;2023-10-08T14:58:04;101942.00;;;20.30
5571;BMP180;2808;51.240;6.794;2023-10-08T15:00:37;101942.00;;;20.30
5571;BMP180;2808;51.240;6.794;2023-10-08T15:03:08;101937.00;;;20.40
5571;BMP180;2808;51.240;6.794;2023-10-08T15:05:39;101946.00;;;20.50
5571;BMP180;2808;51.240;6.794;2023-10-08T15:08:08;101940.00;;;20.50
5571;BMP180;2808;51.240;6.794;2023-10-08T15:10:36;101936.00;;;20.40